createdAt,value
2019-03-04T00:04:32.783Z,12.47
2019-03-04T00:07:02.129Z,12.51
2019-03-04T00:09:31.739Z,12.55
2019-03-04T00:12:01.127Z,12.59
2019-03-04T00:14:30.639Z,12.64
2019-03-04T00:17:00.009Z,12.65
2019-03-04T00:19:29.360Z,12.65
2019-03-04T00:21:58.792Z,12.67
2019-03-04T00:24:28.140Z,12.65
2019-03-04T00:26:57.808Z,12.66
2019-03-04T00:29:27.178Z,12.66
2019-03-04T00:31:56.866Z,12.70
2019-03-04T00:34:26.220Z,12.74
2019-03-04T00:36:55.748Z,12.76
2019-03-04T00:39:25.112Z,12.75
2019-03-04T00:41:54.817Z,12.79
2019-03-04T00:44:24.186Z,12.85
2019-03-04T00:46:54.077Z,12.87
2019-03-04T00:49:23.733Z,12.87
2019-03-04T00:51:53.100Z,12.90
2019-03-04T00:54:23.431Z,12.92
2019-03-04T00:56:52.817Z,12.96
2019-03-04T00:59:22.735Z,12.98
2019-03-04T01:01:52.100Z,13.01
2019-03-04T01:04:21.454Z,13.05
2019-03-04T01:06:50.911Z,13.06
2019-03-04T01:09:20.266Z,13.06
2019-03-04T01:11:49.950Z,13.08
2019-03-04T01:14:19.569Z,13.09
2019-03-04T01:16:49.091Z,13.12
2019-03-04T01:19:18.446Z,13.10
2019-03-04T01:21:47.925Z,13.08
2019-03-04T01:24:17.592Z,13.10
2019-03-04T01:26:46.949Z,13.13
2019-03-04T01:29:16.585Z,13.17
2019-03-04T01:31:46.077Z,13.19
2019-03-04T01:34:15.677Z,13.20
2019-03-04T01:36:45.049Z,13.22
2019-03-04T01:39:14.410Z,13.22
2019-03-04T01:41:44.346Z,13.25
2019-03-04T01:44:14.221Z,13.29
2019-03-04T01:46:43.577Z,13.27
2019-03-04T01:49:13.223Z,13.24
2019-03-04T01:51:42.584Z,13.25
2019-03-04T01:54:12.238Z,13.25
2019-03-04T01:56:41.908Z,13.26
2019-03-04T01:59:11.253Z,13.25
2019-03-04T02:01:40.613Z,13.22
2019-03-04T02:04:10.071Z,13.24
2019-03-04T02:06:39.440Z,13.24
2019-03-04T02:09:11.241Z,13.27
2019-03-04T02:11:42.218Z,13.26
2019-03-04T02:14:11.562Z,13.25
2019-03-04T02:16:41.194Z,13.27
2019-03-04T02:19:10.545Z,13.25
2019-03-04T02:21:40.188Z,13.27
2019-03-04T02:28:03.139Z,13.24
2019-03-04T02:30:32.491Z,13.21
2019-03-04T02:33:02.282Z,13.17
2019-03-04T02:35:31.570Z,13.15
2019-03-04T02:38:01.229Z,13.17
2019-03-04T02:40:30.588Z,13.19
2019-03-04T02:43:00.249Z,13.21
2019-03-04T02:45:29.595Z,13.19
2019-03-04T02:47:59.230Z,13.21
2019-03-04T02:50:28.576Z,13.19
2019-03-04T02:52:58.272Z,13.22
2019-03-04T02:55:27.586Z,13.26
2019-03-04T02:57:57.235Z,13.30
2019-03-04T03:00:26.583Z,13.27
2019-03-04T03:02:56.240Z,13.27
2019-03-04T03:05:25.595Z,13.29
2019-03-04T03:07:54.959Z,13.29
2019-03-04T03:10:24.826Z,13.28
2019-03-04T03:12:54.357Z,13.29
2019-03-04T03:15:23.700Z,13.28
2019-03-04T03:17:53.387Z,13.28
2019-03-04T03:20:33.033Z,13.23
2019-03-04T03:23:02.490Z,13.23
2019-03-04T03:25:31.857Z,13.25
2019-03-04T03:28:01.370Z,13.27
2019-03-04T03:30:30.717Z,13.28
2019-03-04T03:33:00.400Z,13.28
2019-03-04T03:35:29.752Z,13.26
2019-03-04T03:37:59.116Z,13.25
2019-03-04T03:40:28.566Z,13.21
2019-03-04T03:43:03.809Z,13.19
2019-03-04T03:45:33.480Z,13.19
2019-03-04T03:48:02.819Z,13.15
2019-03-04T03:50:32.472Z,13.16
2019-03-04T03:53:01.832Z,13.17
2019-03-04T03:55:31.532Z,13.19
2019-03-04T03:58:01.099Z,13.17
2019-03-04T04:00:30.464Z,13.16
2019-03-04T04:02:59.839Z,13.13
2019-03-04T04:05:29.812Z,13.16
2019-03-04T04:07:59.478Z,13.17
2019-03-04T04:10:30.566Z,13.20
2019-03-04T04:12:59.933Z,13.18
2019-03-04T04:15:29.621Z,13.13
2019-03-04T04:18:00.650Z,13.11
2019-03-04T04:20:30.002Z,13.15
2019-03-04T04:22:59.696Z,13.13
2019-03-04T04:25:29.051Z,13.15
2019-03-04T04:27:58.754Z,13.18
2019-03-04T04:30:47.224Z,13.16
2019-03-04T04:33:18.209Z,13.12
2019-03-04T04:35:47.725Z,13.08
2019-03-04T04:38:17.200Z,13.09
2019-03-04T04:40:46.711Z,13.07
2019-03-04T04:43:16.166Z,13.07
2019-03-04T04:45:45.851Z,13.07
2019-03-04T04:48:15.232Z,13.10
2019-03-04T04:50:44.720Z,13.12
2019-03-04T04:53:14.090Z,13.10
2019-03-04T04:55:43.710Z,13.10
2019-03-04T04:58:23.473Z,13.06
2019-03-04T05:00:52.825Z,13.06
2019-03-04T05:03:22.188Z,13.02
2019-03-04T05:05:51.773Z,12.98
2019-03-04T05:08:21.147Z,12.95
2019-03-04T05:10:50.741Z,12.86
2019-03-04T05:13:20.108Z,12.76
2019-03-04T05:15:49.748Z,12.70
2019-03-04T05:18:19.130Z,12.65
2019-03-04T05:20:49.096Z,12.61
2019-03-04T05:23:18.762Z,12.60
2019-03-04T05:25:48.118Z,12.58
2019-03-04T05:28:18.060Z,12.58
2019-03-04T05:30:47.417Z,12.59
2019-03-04T05:33:17.127Z,12.62
2019-03-04T05:35:46.725Z,12.69
2019-03-04T05:38:16.091Z,12.78
2019-03-04T05:40:45.515Z,12.86
2019-03-04T05:43:15.179Z,12.92
2019-03-04T05:45:44.528Z,13.00
2019-03-04T05:48:14.227Z,13.08
2019-03-04T05:50:43.896Z,13.18
2019-03-04T05:53:13.271Z,13.29
2019-03-04T05:55:43.205Z,13.40
2019-03-04T05:58:12.588Z,13.50
2019-03-04T06:01:01.164Z,13.59
2019-03-04T06:03:30.353Z,13.71
2019-03-04T06:05:59.948Z,13.86
2019-03-04T06:08:29.317Z,13.91
2019-03-04T06:11:00.548Z,13.93
2019-03-04T06:13:30.328Z,13.93
2019-03-04T06:15:59.674Z,13.96
2019-03-04T06:18:29.124Z,13.96
2019-03-04T06:20:58.750Z,13.98
2019-03-04T06:23:30.046Z,14.01
2019-03-04T06:25:59.414Z,14.08
2019-03-04T06:28:39.392Z,14.15
2019-03-04T06:31:09.037Z,14.16
2019-03-04T06:33:38.400Z,14.15
2019-03-04T06:36:09.443Z,14.12
2019-03-04T06:38:39.102Z,14.14
2019-03-04T06:41:08.460Z,14.15
2019-03-04T06:46:53.006Z,14.14
2019-03-04T06:49:24.223Z,14.12
2019-03-04T06:51:59.153Z,14.08
2019-03-04T06:54:59.554Z,14.08
2019-03-04T07:01:14.219Z,14.00
2019-03-04T07:03:43.840Z,13.98
2019-03-04T07:06:13.479Z,13.88
2019-03-04T07:09:14.704Z,13.83
2019-03-04T07:11:44.336Z,13.75
2019-03-04T07:14:14.002Z,13.64
2019-03-04T07:16:43.345Z,13.53
2019-03-04T07:19:12.716Z,13.45
2019-03-04T07:21:42.305Z,13.31
2019-03-04T07:24:11.681Z,13.09
2019-03-04T07:26:41.509Z,12.78
2019-03-04T07:29:10.879Z,12.31
2019-03-04T07:31:40.437Z,11.70
2019-03-04T07:34:09.802Z,11.23
2019-03-04T07:36:40.766Z,10.88
2019-03-04T07:42:44.656Z,10.62
2019-03-04T07:45:14.315Z,10.54
2019-03-04T07:47:43.671Z,10.43
2019-03-04T07:50:14.666Z,10.40
2019-03-04T07:52:44.362Z,10.32
2019-03-04T07:55:13.738Z,10.30
2019-03-04T07:57:43.688Z,10.30
2019-03-04T08:00:13.419Z,10.28
2019-03-04T08:02:42.779Z,10.29
2019-03-04T08:12:25.150Z,10.50
2019-03-04T08:14:54.510Z,10.58
2019-03-04T08:17:24.152Z,10.64
2019-03-04T08:19:53.604Z,10.64
2019-03-04T08:22:22.973Z,10.59
2019-03-04T08:24:52.796Z,10.56
2019-03-04T08:27:22.461Z,10.59
2019-03-04T08:29:51.819Z,10.62
2019-03-04T08:32:21.773Z,10.63
2019-03-04T08:34:52.741Z,10.66
2019-03-04T08:37:22.113Z,10.67
2019-03-04T08:39:51.870Z,10.62
2019-03-04T08:42:22.060Z,10.58
2019-03-04T08:44:51.572Z,10.53
2019-03-04T08:47:21.203Z,10.49
2019-03-04T08:49:50.727Z,10.46
2019-03-04T08:52:20.084Z,10.41
2019-03-04T08:54:49.681Z,10.41
2019-03-04T08:57:19.324Z,10.36
2019-03-04T08:59:48.677Z,10.08
2019-03-04T09:02:18.651Z,9.58
2019-03-04T09:04:48.012Z,9.35
2019-03-04T09:07:17.643Z,9.38
2019-03-04T09:09:47.011Z,9.38
2019-03-04T09:12:18.125Z,9.62
2019-03-04T09:14:47.927Z,9.81
2019-03-04T09:17:17.546Z,9.89
2019-03-04T09:19:46.899Z,9.94
2019-03-04T09:22:16.271Z,10.00
2019-03-04T09:24:45.808Z,10.03
2019-03-04T09:27:15.149Z,9.97
2019-03-04T09:29:46.719Z,9.86
2019-03-04T09:32:34.912Z,9.76
2019-03-04T09:38:37.792Z,9.77
2019-03-04T09:41:07.137Z,10.28
2019-03-04T09:43:36.790Z,10.71
2019-03-04T09:46:08.094Z,11.02
2019-03-04T09:48:37.750Z,11.32
2019-03-04T09:51:07.245Z,11.52
2019-03-04T09:53:39.736Z,11.61
2019-03-04T09:56:26.918Z,11.81
2019-03-04T09:58:56.281Z,12.10
2019-03-04T10:05:24.834Z,12.38
2019-03-04T10:08:32.592Z,12.56
2019-03-04T10:14:47.425Z,12.92
2019-03-04T10:21:29.721Z,13.33
2019-03-04T10:24:37.817Z,13.22
2019-03-04T10:27:46.008Z,13.06
2019-03-04T10:30:45.746Z,12.74
2019-03-04T10:33:53.925Z,12.79
2019-03-04T10:50:11.889Z,12.45
2019-03-04T10:52:41.247Z,12.51
2019-03-04T10:58:45.187Z,12.24
2019-03-04T11:01:15.134Z,12.15
2019-03-04T11:03:44.504Z,12.05
2019-03-04T11:06:24.218Z,11.91
2019-03-04T11:08:53.576Z,11.91
2019-03-04T11:11:29.938Z,11.79
2019-03-04T11:14:15.733Z,11.67
2019-03-04T11:16:53.429Z,11.55
2019-03-04T11:19:23.359Z,11.49
2019-03-04T11:21:52.706Z,11.38
2019-03-04T11:24:34.472Z,11.15
2019-03-04T11:27:04.125Z,11.15
2019-03-04T11:29:33.489Z,11.09
2019-03-04T11:34:58.457Z,10.40
2019-03-04T11:37:28.373Z,9.30
2019-03-04T11:42:53.349Z,8.21
2019-03-04T11:45:22.696Z,8.10
2019-03-04T11:48:04.233Z,8.01
2019-03-04T11:50:33.581Z,8.01
2019-03-04T11:53:03.230Z,8.01
2019-03-04T11:58:52.701Z,7.97
2019-03-04T12:01:41.537Z,7.91
2019-03-04T12:04:11.467Z,7.91
2019-03-04T12:06:43.112Z,7.94
2019-03-04T12:09:31.271Z,7.90
2019-03-04T12:12:00.625Z,7.98
2019-03-04T12:14:30.280Z,8.02
2019-03-04T12:16:59.652Z,8.12
2019-03-04T12:19:29.292Z,8.12
2019-03-04T12:25:32.593Z,8.22
2019-03-04T12:28:01.949Z,8.24
2019-03-04T12:30:31.420Z,8.29
2019-03-04T12:33:00.771Z,8.39
2019-03-04T12:35:31.767Z,8.45
2019-03-04T12:38:01.403Z,8.44
2019-03-04T12:40:30.836Z,8.48
2019-03-04T12:43:00.513Z,8.50
2019-03-04T12:45:34.323Z,8.50
2019-03-04T12:48:20.028Z,8.52
2019-03-04T12:50:49.520Z,8.57
2019-03-04T12:53:19.152Z,8.59
2019-03-04T12:55:58.427Z,8.68
2019-03-04T12:58:27.777Z,8.68
2019-03-04T13:00:57.421Z,8.68
2019-03-04T13:03:26.763Z,8.76
2019-03-04T13:05:56.414Z,8.84
2019-03-04T13:08:25.754Z,8.89
2019-03-04T13:10:56.727Z,8.89
2019-03-04T13:13:26.086Z,8.91
2019-03-04T13:15:55.667Z,9.09
2019-03-04T13:18:25.008Z,9.20
2019-03-04T13:20:54.641Z,9.32
2019-03-04T13:23:24.534Z,9.32
2019-03-04T13:25:53.895Z,9.32
2019-03-04T13:28:23.536Z,9.21
2019-03-04T13:30:52.899Z,9.12
2019-03-04T13:33:41.885Z,9.10
2019-03-04T13:39:08.110Z,9.17
2019-03-04T13:41:37.687Z,9.46
2019-03-04T13:44:27.353Z,9.64
2019-03-04T13:46:56.851Z,9.64
2019-03-04T13:49:45.533Z,9.58
2019-03-04T13:52:15.322Z,9.58
2019-03-04T13:54:44.785Z,9.53
2019-03-04T13:57:14.148Z,9.51
2019-03-04T13:59:43.720Z,9.45
2019-03-04T14:02:13.380Z,9.41
2019-03-04T14:04:42.842Z,9.37
2019-03-04T14:07:12.201Z,9.33
2019-03-04T14:10:01.054Z,9.31
2019-03-04T14:12:30.792Z,9.31
2019-03-04T14:15:00.384Z,9.30
2019-03-04T14:17:40.160Z,9.18
2019-03-04T14:23:30.005Z,9.18
2019-03-04T14:25:59.408Z,9.16
2019-03-04T14:28:38.912Z,9.11
2019-03-04T14:31:08.265Z,9.11
2019-03-04T14:33:37.853Z,9.14
2019-03-04T14:36:08.468Z,9.19
2019-03-04T14:38:38.002Z,9.30
2019-03-04T14:41:08.324Z,9.40
2019-03-04T14:43:37.923Z,9.48
2019-03-04T14:46:19.456Z,9.48
2019-03-04T14:48:48.967Z,9.51
2019-03-04T14:51:19.109Z,9.51
2019-03-04T14:54:08.638Z,9.47
2019-03-04T14:56:38.020Z,9.37
2019-03-04T14:59:11.154Z,9.35
2019-03-04T15:01:49.029Z,9.34
2019-03-04T15:04:18.377Z,9.29
2019-03-04T15:10:14.581Z,9.32
2019-03-04T15:12:44.016Z,9.37
2019-03-04T15:18:47.468Z,9.35
2019-03-04T15:21:17.116Z,9.33
2019-03-04T15:23:46.720Z,9.31
2019-03-04T15:26:16.387Z,9.30
2019-03-04T15:28:46.087Z,9.17
2019-03-04T15:34:11.421Z,9.14
2019-03-04T15:36:41.085Z,9.19
2019-03-04T15:41:51.265Z,9.21
2019-03-04T15:44:39.946Z,9.19
2019-03-04T15:47:09.541Z,9.19
2019-03-04T15:53:13.329Z,9.30
2019-03-04T15:55:42.983Z,9.31
2019-03-04T15:58:12.460Z,9.32
2019-03-04T16:00:41.876Z,9.31
2019-03-04T16:03:11.581Z,9.35
2019-03-04T16:05:41.255Z,9.41
2019-03-04T16:08:10.615Z,9.41
2019-03-04T16:10:40.235Z,9.42
2019-03-04T16:13:09.970Z,9.40
2019-03-04T16:16:10.254Z,9.45
2019-03-04T16:18:39.623Z,9.41
2019-03-04T16:21:09.539Z,9.47
2019-03-04T16:23:51.490Z,9.45
2019-03-04T16:26:21.139Z,9.45
2019-03-04T16:28:50.505Z,9.43
2019-03-04T16:31:20.440Z,9.42
2019-03-04T16:33:50.072Z,9.41
2019-03-04T16:36:20.214Z,9.35
2019-03-04T16:38:49.866Z,9.31
2019-03-04T16:41:20.691Z,9.25
2019-03-04T16:43:51.481Z,9.20
2019-03-04T16:46:21.187Z,9.20
2019-03-04T16:48:50.551Z,9.18
2019-03-04T16:51:19.891Z,9.17
2019-03-04T16:53:49.484Z,9.16
2019-03-04T16:56:18.895Z,9.12
2019-03-04T16:58:48.521Z,9.14
2019-03-04T17:01:18.054Z,9.16
2019-03-04T17:03:47.496Z,9.13
2019-03-04T17:06:17.428Z,9.11
2019-03-04T17:08:53.530Z,9.07
2019-03-04T17:11:23.520Z,9.07
2019-03-04T17:13:52.871Z,9.06
2019-03-04T17:16:22.538Z,9.07
2019-03-04T17:18:51.889Z,9.10
2019-03-04T17:21:21.552Z,9.11
2019-03-04T17:23:50.912Z,9.12
2019-03-04T17:29:01.100Z,9.15
2019-03-04T17:31:30.673Z,9.16
2019-03-04T17:34:00.013Z,9.11
2019-03-04T17:36:29.583Z,9.10
2019-03-04T17:38:58.947Z,9.12
2019-03-04T17:41:28.582Z,9.13
2019-03-04T17:43:58.005Z,9.13
2019-03-04T17:46:27.712Z,9.13
2019-03-04T17:48:57.068Z,9.09
2019-03-04T17:51:26.942Z,8.99
2019-03-04T17:54:06.373Z,8.97
2019-03-04T17:56:35.711Z,8.97
2019-03-04T17:59:05.086Z,8.99
2019-03-04T18:01:34.755Z,8.95
2019-03-04T18:04:04.118Z,8.95
2019-03-04T18:06:33.693Z,9.02
2019-03-04T18:11:43.126Z,8.98
2019-03-04T18:14:12.920Z,8.95
2019-03-04T18:16:42.273Z,8.97
2019-03-04T18:19:11.955Z,8.95
2019-03-04T18:21:41.306Z,8.96
2019-03-04T18:24:10.956Z,8.98
2019-03-04T18:30:44.865Z,9.01
2019-03-04T18:33:52.974Z,9.01
2019-03-04T18:37:02.800Z,9.02
2019-03-04T18:40:13.661Z,9.02
2019-03-04T18:43:21.712Z,8.95
2019-03-04T18:46:29.793Z,8.95
2019-03-04T18:49:29.953Z,8.94
2019-03-04T18:51:59.306Z,8.84
2019-03-04T18:54:29.177Z,8.65
2019-03-04T18:56:58.865Z,8.65
2019-03-04T18:59:28.268Z,8.58
2019-03-04T19:01:57.978Z,8.49
2019-03-04T19:04:27.332Z,8.42
2019-03-04T19:06:57.004Z,8.27
2019-03-04T19:09:26.446Z,8.27
2019-03-04T19:11:56.097Z,8.20
2019-03-04T19:14:44.826Z,8.19
2019-03-04T19:17:14.309Z,8.19
2019-03-04T19:19:44.207Z,8.12
2019-03-04T19:22:13.563Z,8.13
2019-03-04T19:24:43.325Z,8.09
2019-03-04T19:27:13.204Z,8.09
2019-03-04T19:33:03.439Z,8.03
2019-03-04T19:35:47.013Z,8.02
2019-03-04T19:38:28.868Z,7.97
2019-03-04T19:41:10.595Z,7.97
2019-03-04T19:43:52.153Z,7.96
2019-03-04T19:46:34.014Z,7.96
2019-03-04T19:49:15.801Z,7.95
2019-03-04T19:51:57.908Z,7.97
2019-03-04T19:54:41.002Z,7.98
2019-03-04T19:57:23.129Z,7.98
2019-03-04T19:59:52.539Z,7.97
2019-03-04T20:02:22.029Z,7.96
2019-03-04T20:04:51.700Z,7.93
2019-03-04T20:07:23.299Z,7.93
2019-03-04T20:09:54.024Z,7.96
2019-03-04T20:12:23.659Z,7.96
2019-03-04T20:15:05.312Z,7.93
2019-03-04T20:17:34.844Z,7.93
2019-03-04T20:20:34.853Z,7.91
2019-03-04T20:23:04.255Z,7.84
2019-03-04T20:25:33.631Z,7.84
2019-03-04T20:28:03.325Z,7.82
2019-03-04T20:30:32.944Z,7.78
2019-03-04T20:33:02.312Z,7.78
2019-03-04T20:35:31.695Z,7.78
2019-03-04T20:38:15.983Z,7.77
2019-03-04T20:40:45.354Z,7.77
2019-03-04T20:43:15.293Z,7.81
2019-03-04T20:45:44.651Z,7.81
2019-03-04T20:48:14.298Z,7.81
2019-03-04T20:51:14.025Z,7.85
2019-03-04T20:53:43.375Z,7.87
2019-03-04T20:56:13.037Z,7.88
2019-03-04T20:59:01.741Z,7.86
2019-03-04T21:01:43.446Z,7.85
2019-03-04T21:04:12.796Z,7.85
2019-03-04T21:06:42.293Z,7.92
2019-03-04T21:09:11.784Z,7.92
2019-03-04T21:11:42.769Z,7.93
2019-03-04T21:14:12.411Z,7.95
2019-03-04T21:16:42.111Z,7.97
2019-03-04T21:19:11.476Z,8.01
2019-03-04T21:21:40.827Z,8.05
2019-03-04T21:24:31.131Z,8.05
2019-03-04T21:27:00.490Z,8.07
2019-03-04T21:33:04.397Z,8.05
2019-03-04T21:39:24.522Z,7.97
2019-03-04T21:42:32.595Z,7.97
2019-03-04T21:52:43.317Z,7.87
2019-03-04T21:55:52.849Z,7.90
2019-03-04T21:58:41.862Z,7.92
2019-03-04T22:01:50.231Z,7.92
2019-03-04T22:04:31.812Z,7.90
2019-03-04T22:07:01.456Z,7.90
2019-03-04T22:09:30.895Z,7.90
2019-03-04T22:12:00.229Z,7.89
2019-03-04T22:14:29.743Z,7.88
2019-03-04T22:16:59.132Z,7.88
2019-03-04T22:19:28.584Z,7.87
2019-03-04T22:21:57.916Z,7.87
2019-03-04T22:24:27.291Z,7.86
2019-03-04T22:27:27.472Z,7.82
2019-03-04T22:30:25.609Z,7.82
2019-03-04T22:32:54.972Z,7.86
2019-03-04T22:35:24.619Z,7.85
2019-03-04T22:37:53.983Z,7.85
2019-03-04T22:43:52.016Z,7.93
2019-03-04T22:46:22.998Z,7.96
2019-03-04T22:48:54.493Z,7.99
2019-03-04T22:51:24.036Z,8.03
2019-03-04T22:54:13.004Z,8.13
2019-03-04T22:56:42.759Z,8.13
2019-03-04T22:59:12.096Z,8.17
2019-03-04T23:01:54.301Z,8.14
2019-03-04T23:04:25.171Z,8.14
2019-03-04T23:07:14.011Z,8.22
2019-03-04T23:13:48.941Z,8.27
2019-03-04T23:19:58.335Z,8.23
2019-03-04T23:22:27.719Z,8.23
2019-03-04T23:24:57.331Z,8.20
2019-03-04T23:27:46.278Z,8.09
2019-03-04T23:33:50.466Z,8.03
2019-03-04T23:36:19.863Z,7.90
2019-03-04T23:38:49.235Z,7.90
2019-03-04T23:41:20.200Z,7.87
2019-03-04T23:43:51.176Z,7.83
2019-03-04T23:46:22.424Z,7.74
2019-03-04T23:49:11.653Z,7.69
2019-03-04T23:51:40.991Z,7.69
2019-03-04T23:54:10.661Z,7.64
2019-03-04T23:56:40.013Z,7.62
2019-03-04T23:59:10.256Z,7.60
